Main page
METAR-TAF:

METAR-TAF

Airports :

Glasgow Prestwick Airport

Glasgow-Prestwick, Scotland

latitude: 55-30N, longitude: 004-35W, elevation: 20 m

Current weather observation

The report was made 32 minutes ago, at 22:20 UTC
Wind 3 kt from the East
Temperature 6°C
Humidity 70%
Pressure 1001 hPa
Visibility 10 km or more
Few clouds at a height of 4000 ft

METAR: EGPK 212220Z 08003KT 9999 FEW040 06/01 Q1001

Time: 22:52 (22:52 UTC)

Forecast

The report was made 5 hours and 56 minutes ago, at 16:56 UTC
Forecast valid from 21 at 18 UTC to 22 at 18 UTC
Wind 9 kt from the East/Northeast
Visibility 10 km or more
Few clouds at a height of 3000 ft
Probability 30% :
Temporary
from 21 at 18 UTC to 22 at 09 UTC
Wind 15 kt from the East with gusts up to 25 kt

TAF: EGPK 211656Z 2118/2218 07009KT 9999 FEW030 PROB30 TEMPO 2118/2209 08015G25KT

Weather observations and forecasts of more than 4000 airports (METAR and TAF reports).

The available stations are represented by yellow and red dots on the map.

Hover mouse over dot to see the name of the station.

Then click to see weather observations and forecasts.

To change the map : click on the green buttons with a black cross to zoom in, on the green button with a dash to zoom out, or on the green arrows for adjacent maps.


METAR-TAF: